CheckWX is a tool to help pilots better visualize weather data.  It is not intended as a substitute for an official pre-flight weather briefing.

12:23:04 UTC

KBGM METAR
Greater Binghamton / Edwin A Link Field Airport
Binghamton, New York, USA
Current

30 mins ago

KBGM 221153Z 34006KT 10SM OVC025 M03/M07 A3025 RMK AO2 SLP264 T10281067 11011 21028 53019
Observed
Feb-22 @ 11:53 UTC
Wind
  • 340° at 6 KTS
Visibility
10 SM
Flight Rules
MVFR
Cloud Levels
  • Overcast at 2,500' AGL
Temperature
-3°C / 27°F
Dewpoint
-7°C / 19°F
Humidity
74%
Altimeter
30.25" Hg
Pressure
1026.4 hPa
Previous

2 hours ago

KBGM 221053Z 31006KT 10SM BKN025 OVC032 M02/M07 A3024 RMK AO2 SLP257 T10221067
Observed
Feb-22 @ 10:53 UTC
Wind
  • 310° at 6 KTS
Visibility
10 SM
Flight Rules
MVFR
Cloud Levels
  • Broken at 2,500' AGL
  • Overcast at 3,200' AGL
Temperature
-2°C / 28°F
Dewpoint
-7°C / 19°F
Humidity
69%
Altimeter
30.24" Hg
Pressure
1025.7 hPa
Previous

3 hours ago

KBGM 220953Z AUTO 32007KT 9SM SCT022 BKN027 OVC036 M02/M06 A3021 RMK AO2 SLP245 T10221061
Observed
Feb-22 @ 09:53 UTC
Wind
  • 320° at 7 KTS
Visibility
9 SM
Flight Rules
MVFR
Cloud Levels
  • Scattered at 2,200' AGL
  • Broken at 2,700' AGL
  • Overcast at 3,600' AGL
Temperature
-2°C / 28°F
Dewpoint
-6°C / 21°F
Humidity
74%
Altimeter
30.21" Hg
Pressure
1024.5 hPa